Time;durP1;ratioP1;P1;durP2;ratioP2;P2;SDS_P1;SDS_P2;PMS_P1;PMS_P2;Temp;Humidity;BMP_temperature;BMP_pressure;BME280_temperature;BME280_humidity;BME280_pressure;Samples;Min_cycle;Max_cycle;Signal;HPM_P1;HPM_P2
2021/01/25 00:01:21;;;;;;;2.67;1.60;;;;;;;;;;10257745;28;20069;-65
2021/01/25 00:06:18;;;;;;;1.25;1.17;;;;;;;;;;10236480;28;20034;-64
2021/01/25 00:11:16;;;;;;;0.83;0.80;;;;;;;;;;10265221;28;20041;-64
2021/01/25 00:16:13;;;;;;;1.80;1.43;;;;;;;;;;10272954;28;20037;-64
2021/01/25 00:21:10;;;;;;;3.10;1.80;;;;;;;;;;10265521;28;20045;-63
2021/01/25 00:26:08;;;;;;;0.90;0.90;;;;;;;;;;10260450;28;20034;-64
2021/01/25 00:31:05;;;;;;;1.13;1.10;;;;;;;;;;10259721;28;20042;-64
2021/01/25 00:36:03;;;;;;;1.30;1.13;;;;;;;;;;10272117;28;20496;-63
2021/01/25 00:41:00;;;;;;;1.53;1.43;;;;;;;;;;10277328;28;20037;-64
2021/01/25 00:45:57;;;;;;;0.80;0.80;;;;;;;;;;10274789;28;20041;-63
2021/01/25 00:50:55;;;;;;;1.70;1.40;;;;;;;;;;10275378;28;20052;-64
2021/01/25 00:55:52;;;;;;;2.47;2.10;;;;;;;;;;10293325;28;20025;-63
2021/01/25 01:00:56;;;;;;;2.33;1.73;;;;;;;;;;10293045;28;20034;-62
2021/01/25 01:05:54;;;;;;;5.45;1.75;;;;;;;;;;10273396;28;20033;-63
2021/01/25 01:10:51;;;;;;;1.73;1.63;;;;;;;;;;10276481;28;20484;-64
2021/01/25 01:15:49;;;;;;;3.00;2.07;;;;;;;;;;10274332;28;20573;-64
2021/01/25 01:20:46;;;;;;;6.47;2.30;;;;;;;;;;10269911;28;20038;-64
2021/01/25 01:25:43;;;;;;;0.60;0.60;;;;;;;;;;10266666;28;20076;-63
2021/01/25 01:30:41;;;;;;;0.70;0.70;;;;;;;;;;10268552;28;20029;-63
2021/01/25 01:35:38;;;;;;;1.57;1.07;;;;;;;;;;10271114;28;20060;-64
2021/01/25 01:40:35;;;;;;;0.40;0.40;;;;;;;;;;10278220;28;20030;-66
2021/01/25 01:45:33;;;;;;;1.20;1.10;;;;;;;;;;10297579;28;20033;-64
2021/01/25 01:50:30;;;;;;;2.30;0.53;;;;;;;;;;10285893;28;20072;-64
2021/01/25 01:55:28;;;;;;;0.50;0.50;;;;;;;;;;10281521;28;20124;-64
2021/01/25 02:00:25;;;;;;;0.77;0.77;;;;;;;;;;10287638;28;20041;-64
2021/01/25 02:05:23;;;;;;;0.20;0.20;;;;;;;;;;10283349;28;20116;-64
2021/01/25 02:10:21;;;;;;;0.30;0.30;;;;;;;;;;10282822;28;20450;-64
2021/01/25 02:15:18;;;;;;;;;;;;;;;;;;10270173;28;20289;-65
2021/01/25 02:20:22;;;;;;;0.30;0.30;;;;;;;;;;10294055;28;19917;-64
2021/01/25 02:25:41;;;;;;;0.70;0.70;;;;;;;;;;10281294;28;20032;-64
2021/01/25 02:30:38;;;;;;;;;;;;;;;;;;10284952;28;20032;-64
2021/01/25 02:35:36;;;;;;;0.30;0.30;;;;;;;;;;10308305;28;20379;-65
2021/01/25 02:40:34;;;;;;;1.10;0.77;;;;;;;;;;10267059;28;20033;-65
2021/01/25 02:45:32;;;;;;;0.65;0.65;;;;;;;;;;10273335;28;20407;-65
2021/01/25 02:50:29;;;;;;;1.00;0.93;;;;;;;;;;10280836;28;20033;-64
2021/01/25 02:55:26;;;;;;;0.83;0.73;;;;;;;;;;10272433;28;20434;-64
2021/01/25 03:00:24;;;;;;;3.33;1.43;;;;;;;;;;10278267;28;20038;-63
2021/01/25 03:05:21;;;;;;;3.37;1.80;;;;;;;;;;10287772;28;20504;-64
2021/01/25 03:10:19;;;;;;;4.90;1.57;;;;;;;;;;10273925;28;20037;-65
2021/01/25 03:15:19;;;;;;;2.40;1.93;;;;;;;;;;10275197;28;20390;-64
2021/01/25 03:20:17;;;;;;;2.13;1.95;;;;;;;;;;10265080;28;20527;-65
2021/01/25 03:25:14;;;;;;;1.40;1.27;;;;;;;;;;10270245;28;20061;-65
2021/01/25 03:30:13;;;;;;;5.67;2.43;;;;;;;;;;10275091;28;20517;-65
2021/01/25 03:35:11;;;;;;;5.03;1.98;;;;;;;;;;10279167;28;20561;-64
2021/01/25 03:40:08;;;;;;;7.25;2.58;;;;;;;;;;10266675;28;20462;-64
2021/01/25 03:45:06;;;;;;;5.93;2.78;;;;;;;;;;10269106;28;20042;-64
2021/01/25 03:50:04;;;;;;;1.98;1.80;;;;;;;;;;10261602;28;20034;-63
2021/01/25 03:55:02;;;;;;;2.42;2.22;;;;;;;;;;10285523;28;20086;-65
2021/01/25 03:59:59;;;;;;;6.43;2.73;;;;;;;;;;10276405;28;20419;-64
2021/01/25 04:04:56;;;;;;;4.13;3.23;;;;;;;;;;10294002;28;20037;-64
2021/01/25 04:09:54;;;;;;;2.90;2.07;;;;;;;;;;10273156;28;20033;-64
2021/01/25 04:14:51;;;;;;;3.97;1.87;;;;;;;;;;10283988;28;20034;-66
2021/01/25 04:19:49;;;;;;;1.45;1.35;;;;;;;;;;10286819;28;20133;-63
2021/01/25 04:24:46;;;;;;;3.87;2.37;;;;;;;;;;10275550;28;20053;-65
2021/01/25 04:29:44;;;;;;;3.47;1.90;;;;;;;;;;10288035;28;20045;-65
2021/01/25 04:34:42;;;;;;;1.43;1.33;;;;;;;;;;10275661;28;21120;-64
2021/01/25 04:39:39;;;;;;;4.60;1.27;;;;;;;;;;10282879;28;20034;-64
2021/01/25 04:44:38;;;;;;;2.33;2.20;;;;;;;;;;10285425;28;20029;-64
2021/01/25 04:49:36;;;;;;;3.25;2.20;;;;;;;;;;10253799;28;20030;-64
2021/01/25 04:54:33;;;;;;;5.43;2.97;;;;;;;;;;10275087;28;20045;-64
2021/01/25 04:59:31;;;;;;;3.03;1.80;;;;;;;;;;10268569;28;20037;-64
2021/01/25 05:04:28;;;;;;;2.90;2.63;;;;;;;;;;10282257;28;20049;-64
2021/01/25 05:09:26;;;;;;;1.13;1.00;;;;;;;;;;10273355;28;20034;-64
2021/01/25 05:14:23;;;;;;;3.73;2.20;;;;;;;;;;10272706;28;20087;-64
2021/01/25 05:19:24;;;;;;;3.30;2.40;;;;;;;;;;10284649;28;20057;-64
2021/01/25 05:24:22;;;;;;;4.40;1.00;;;;;;;;;;10286734;28;20115;-64
2021/01/25 05:29:27;;;;;;;4.43;2.13;;;;;;;;;;10274445;28;20773;-63
2021/01/25 05:34:25;;;;;;;3.25;1.90;;;;;;;;;;10312126;28;20049;-65
2021/01/25 05:39:30;;;;;;;4.83;3.10;;;;;;;;;;10294526;28;20037;-65
2021/01/25 05:44:32;;;;;;;5.70;2.90;;;;;;;;;;10283604;28;20128;-64
2021/01/25 05:49:29;;;;;;;2.55;1.83;;;;;;;;;;10287420;28;20502;-64
2021/01/25 05:54:27;;;;;;;2.97;2.57;;;;;;;;;;10294217;28;20345;-64
2021/01/25 05:59:24;;;;;;;10.80;4.05;;;;;;;;;;10283140;28;20098;-64
2021/01/25 06:04:22;;;;;;;4.37;3.80;;;;;;;;;;10270178;28;20033;-64
2021/01/25 06:09:35;;;;;;;3.07;2.83;;;;;;;;;;10284183;28;20037;-64
2021/01/25 06:14:43;;;;;;;2.45;2.25;;;;;;;;;;10284037;28;20038;-64
2021/01/25 06:19:41;;;;;;;4.77;2.93;;;;;;;;;;10278841;28;20412;-64
2021/01/25 06:24:39;;;;;;;2.70;2.30;;;;;;;;;;10295315;28;20022;-65
2021/01/25 06:29:36;;;;;;;3.92;2.75;;;;;;;;;;10287913;28;20086;-64
2021/01/25 06:34:36;;;;;;;4.80;2.37;;;;;;;;;;10284835;28;20041;-64
2021/01/25 06:39:33;;;;;;;2.72;2.50;;;;;;;;;;10300431;28;20133;-64
2021/01/25 06:44:31;;;;;;;3.30;2.27;;;;;;;;;;10272726;28;20124;-64
2021/01/25 06:49:29;;;;;;;4.32;2.83;;;;;;;;;;10293306;28;20499;-65
2021/01/25 06:54:27;;;;;;;2.05;1.48;;;;;;;;;;10297915;28;20530;-63
2021/01/25 06:59:30;;;;;;;3.42;1.80;;;;;;;;;;10291103;28;20377;-64
2021/01/25 07:04:29;;;;;;;8.32;2.78;;;;;;;;;;10300296;28;20044;-65
2021/01/25 07:09:27;;;;;;;4.30;3.08;;;;;;;;;;10272280;28;20048;-65
2021/01/25 07:14:25;;;;;;;8.07;3.73;;;;;;;;;;10288949;28;20056;-64
2021/01/25 07:19:22;;;;;;;;;;;;;;;;;;10289170;28;20053;-63
2021/01/25 07:24:24;;;;;;;9.93;4.72;;;;;;;;;;10270519;28;20347;-64
2021/01/25 07:29:22;;;;;;;12.30;5.03;;;;;;;;;;10282676;28;20041;-64
2021/01/25 07:34:20;;;;;;;5.07;4.35;;;;;;;;;;10291576;28;20048;-64
2021/01/25 07:39:18;;;;;;;8.10;4.63;;;;;;;;;;10253161;28;20703;-63
2021/01/25 07:44:16;;;;;;;7.90;4.20;;;;;;;;;;10266292;23;20100;-63
2021/01/25 07:49:20;;;;;;;9.95;5.95;;;;;;;;;;10224998;28;20518;-63
2021/01/25 07:54:23;;;;;;;9.32;4.22;;;;;;;;;;10201528;28;20487;-61
2021/01/25 07:59:22;;;;;;;5.30;3.42;;;;;;;;;;10196831;28;20460;-61
2021/01/25 08:04:23;;;;;;;7.88;5.38;;;;;;;;;;10200456;28;20113;-61
2021/01/25 08:09:21;;;;;;;7.03;5.35;;;;;;;;;;10199135;28;20048;-60
2021/01/25 08:14:28;;;;;;;6.10;4.55;;;;;;;;;;10205026;28;20101;-61
2021/01/25 08:19:28;;;;;;;5.88;3.20;;;;;;;;;;10194176;28;20058;-61
2021/01/25 08:24:26;;;;;;;5.00;3.63;;;;;;;;;;10216592;28;20044;-62
2021/01/25 08:29:42;;;;;;;3.78;2.83;;;;;;;;;;10242282;23;20038;-66
2021/01/25 08:47:29;;;;;;;1.40;0.80;;;;;;;;;;10183092;28;20035;-63
2021/01/25 08:52:31;;;;;;;0.70;0.70;;;;;;;;;;10154269;28;20042;-65
2021/01/25 08:57:38;;;;;;;0.45;0.45;;;;;;;;;;10152532;28;20122;-64
2021/01/25 09:02:35;;;;;;;;;;;;;;;;;;10150332;28;20069;-65
2021/01/25 09:07:33;;;;;;;0.57;0.57;;;;;;;;;;10152882;28;19929;-65
2021/01/25 09:12:30;;;;;;;0.30;0.30;;;;;;;;;;10141300;28;20290;-66
2021/01/25 09:17:28;;;;;;;0.20;0.20;;;;;;;;;;10157366;28;20293;-65
2021/01/25 09:22:25;;;;;;;0.20;0.20;;;;;;;;;;10149975;28;20501;-68
2021/01/25 09:27:23;;;;;;;0.27;0.27;;;;;;;;;;10161055;28;20410;-66
2021/01/25 09:32:20;;;;;;;0.20;0.20;;;;;;;;;;10138716;28;20043;-64
2021/01/25 09:37:18;;;;;;;1.13;0.60;;;;;;;;;;10162942;28;20271;-67
2021/01/25 09:42:16;;;;;;;2.17;0.77;;;;;;;;;;10134360;28;20673;-68
2021/01/25 09:47:13;;;;;;;3.58;1.55;;;;;;;;;;10157794;28;20046;-65
2021/01/25 09:52:11;;;;;;;6.67;3.33;;;;;;;;;;10153654;28;20063;-66
2021/01/25 09:57:10;;;;;;;7.93;2.23;;;;;;;;;;10143520;28;20030;-65
2021/01/25 10:02:11;;;;;;;4.95;1.75;;;;;;;;;;10155850;28;20050;-64
2021/01/25 10:07:08;;;;;;;5.40;2.83;;;;;;;;;;10153109;28;20540;-66
2021/01/25 10:12:06;;;;;;;12.23;3.93;;;;;;;;;;10150706;28;20106;-66
2021/01/25 10:17:04;;;;;;;18.60;7.00;;;;;;;;;;10151976;28;20089;-67
2021/01/25 10:22:03;;;;;;;15.45;5.63;;;;;;;;;;10140696;28;20042;-65
2021/01/25 10:27:00;;;;;;;15.90;5.13;;;;;;;;;;10147781;28;20093;-69
2021/01/25 10:31:58;;;;;;;9.50;4.10;;;;;;;;;;10144490;28;20095;-66
2021/01/25 10:36:55;;;;;;;16.20;6.00;;;;;;;;;;10137537;28;20145;-64
2021/01/25 10:41:53;;;;;;;12.77;3.90;;;;;;;;;;10144200;28;20046;-64
2021/01/25 10:46:50;;;;;;;9.23;3.43;;;;;;;;;;10157216;28;20497;-64
2021/01/25 10:51:47;;;;;;;5.00;2.77;;;;;;;;;;10136632;28;20703;-64
2021/01/25 10:56:45;;;;;;;9.83;3.23;;;;;;;;;;10135203;28;20039;-64
2021/01/25 11:01:42;;;;;;;4.50;2.20;;;;;;;;;;10129537;28;20039;-65
2021/01/25 11:06:40;;;;;;;4.50;3.07;;;;;;;;;;10146144;28;20050;-64
2021/01/25 11:11:37;;;;;;;5.70;3.63;;;;;;;;;;10150991;28;20047;-65
2021/01/25 11:16:35;;;;;;;4.67;2.90;;;;;;;;;;10136204;28;20035;-65
2021/01/25 11:21:32;;;;;;;9.33;4.43;;;;;;;;;;10137072;28;20046;-65
2021/01/25 11:26:33;;;;;;;3.37;2.87;;;;;;;;;;10140571;28;20117;-65
2021/01/25 11:31:31;;;;;;;4.18;2.35;;;;;;;;;;10138570;28;20793;-65
2021/01/25 11:36:28;;;;;;;7.97;4.07;;;;;;;;;;10140783;28;20046;-66
2021/01/25 11:41:28;;;;;;;2.73;1.90;;;;;;;;;;10153446;28;20413;-65
2021/01/25 11:46:28;;;;;;;12.43;4.57;;;;;;;;;;10146659;28;20042;-66
2021/01/25 11:51:26;;;;;;;5.30;3.43;;;;;;;;;;10159777;28;20031;-66
2021/01/25 11:56:24;;;;;;;3.63;2.33;;;;;;;;;;10133582;28;20035;-67
2021/01/25 12:01:21;;;;;;;4.68;2.50;;;;;;;;;;10146858;28;20122;-66
2021/01/25 12:06:19;;;;;;;3.77;2.90;;;;;;;;;;10150237;28;20119;-66
2021/01/25 12:11:17;;;;;;;4.43;2.43;;;;;;;;;;10151722;28;20109;-65
2021/01/25 12:16:15;;;;;;;0.93;0.93;;;;;;;;;;10154214;28;20046;-66
2021/01/25 12:21:13;;;;;;;7.15;3.83;;;;;;;;;;10162802;28;20653;-66
2021/01/25 12:26:10;;;;;;;6.23;2.93;;;;;;;;;;10155883;28;20057;-65
2021/01/25 12:31:08;;;;;;;2.87;1.90;;;;;;;;;;10152295;28;20836;-64
2021/01/25 12:36:05;;;;;;;4.83;1.87;;;;;;;;;;10159014;28;20046;-65
2021/01/25 12:41:03;;;;;;;7.53;3.73;;;;;;;;;;10163962;28;20404;-66
2021/01/25 12:46:01;;;;;;;5.45;3.20;;;;;;;;;;10153443;28;20142;-65
2021/01/25 12:50:58;;;;;;;5.50;2.27;;;;;;;;;;10161423;28;20122;-65
2021/01/25 12:55:56;;;;;;;5.63;2.37;;;;;;;;;;10136589;28;20043;-66
2021/01/25 13:00:54;;;;;;;3.67;2.10;;;;;;;;;;10135859;28;20058;-65
2021/01/25 13:05:51;;;;;;;1.67;1.33;;;;;;;;;;10168111;28;20557;-66
2021/01/25 13:10:48;;;;;;;2.57;1.60;;;;;;;;;;10157315;28;20034;-66
2021/01/25 13:15:46;;;;;;;4.23;2.27;;;;;;;;;;10137974;28;20438;-68
2021/01/25 13:20:44;;;;;;;3.70;2.07;;;;;;;;;;10152271;28;20034;-69
2021/01/25 13:25:42;;;;;;;5.13;2.55;;;;;;;;;;10165278;28;22092;-69
2021/01/25 13:30:40;;;;;;;4.73;1.97;;;;;;;;;;10147526;28;20039;-70
2021/01/25 13:35:37;;;;;;;3.33;1.63;;;;;;;;;;10157168;28;20290;-68
2021/01/25 13:40:37;;;;;;;0.67;0.40;;;;;;;;;;10163378;28;20047;-69
2021/01/25 13:45:35;;;;;;;0.73;0.73;;;;;;;;;;10143704;28;20109;-68
2021/01/25 13:50:33;;;;;;;2.33;0.70;;;;;;;;;;10146425;28;20101;-68
2021/01/25 13:55:31;;;;;;;1.10;0.60;;;;;;;;;;10166106;28;20047;-71
2021/01/25 14:00:30;;;;;;;0.40;0.40;;;;;;;;;;10157273;28;20286;-69
2021/01/25 14:05:27;;;;;;;2.63;0.95;;;;;;;;;;10148366;28;20046;-68
2021/01/25 14:10:25;;;;;;;0.10;0.10;;;;;;;;;;10160765;28;20039;-66
2021/01/25 14:15:23;;;;;;;0.43;0.30;;;;;;;;;;10159563;28;20043;-66
2021/01/25 14:20:20;;;;;;;0.97;0.30;;;;;;;;;;10152290;28;20038;-66
2021/01/25 14:25:19;;;;;;;0.20;0.20;;;;;;;;;;10148009;28;20049;-66
2021/01/25 14:30:19;;;;;;;0.20;0.20;;;;;;;;;;10153740;28;20034;-66
2021/01/25 14:35:22;;;;;;;0.15;0.15;;;;;;;;;;10145175;28;20034;-65
2021/01/25 14:40:22;;;;;;;0.70;0.70;;;;;;;;;;10154559;28;20131;-66
2021/01/25 14:45:21;;;;;;;0.80;0.55;;;;;;;;;;10154289;28;20283;-66
2021/01/25 14:50:21;;;;;;;0.40;0.40;;;;;;;;;;10140060;28;20466;-66
2021/01/25 14:55:22;;;;;;;0.50;0.50;;;;;;;;;;10146637;28;20043;-66
2021/01/25 15:00:21;;;;;;;0.65;0.40;;;;;;;;;;10142697;28;20043;-66
2021/01/25 15:05:19;;;;;;;0.32;0.32;;;;;;;;;;10151255;28;20035;-66
2021/01/25 15:10:17;;;;;;;2.05;0.52;;;;;;;;;;10144900;28;20041;-66
2021/01/25 15:15:16;;;;;;;0.68;0.65;;;;;;;;;;10177141;28;20050;-66
2021/01/25 15:20:16;;;;;;;0.20;0.20;;;;;;;;;;10165577;28;20405;-66
2021/01/25 15:25:14;;;;;;;0.43;0.43;;;;;;;;;;10181370;28;20098;-66
2021/01/25 15:30:13;;;;;;;0.60;0.55;;;;;;;;;;10180653;28;20034;-66
2021/01/25 15:35:11;;;;;;;0.60;0.60;;;;;;;;;;10178126;28;20045;-67
2021/01/25 15:40:09;;;;;;;2.92;1.55;;;;;;;;;;10178318;28;20053;-67
2021/01/25 15:45:08;;;;;;;1.70;0.57;;;;;;;;;;10136897;28;20050;-66
2021/01/25 15:50:06;;;;;;;1.50;0.40;;;;;;;;;;10151960;28;20097;-66
2021/01/25 15:55:05;;;;;;;0.75;0.75;;;;;;;;;;10157862;28;20039;-67
2021/01/25 16:00:04;;;;;;;2.75;1.77;;;;;;;;;;10157453;28;20097;-66
2021/01/25 16:05:04;;;;;;;1.48;1.05;;;;;;;;;;10158783;28;20572;-66
2021/01/25 16:10:02;;;;;;;3.97;1.63;;;;;;;;;;10152251;28;20113;-66
2021/01/25 16:15:00;;;;;;;2.35;1.77;;;;;;;;;;10145917;28;20039;-66
2021/01/25 16:19:57;;;;;;;3.07;2.27;;;;;;;;;;10152057;28;20134;-66
2021/01/25 16:24:55;;;;;;;3.67;2.17;;;;;;;;;;10158898;28;20139;-66
2021/01/25 16:29:53;;;;;;;5.17;2.33;;;;;;;;;;10150381;28;20684;-66
2021/01/25 16:34:51;;;;;;;5.93;2.70;;;;;;;;;;10156050;28;20039;-65
2021/01/25 16:39:48;;;;;;;;;;;;;;;;;;10165719;28;20370;-66
2021/01/25 16:44:46;;;;;;;10.23;4.95;;;;;;;;;;10197364;23;20009;-65
2021/01/25 16:49:44;;;;;;;5.47;3.00;;;;;;;;;;10175827;28;20284;-65
2021/01/25 16:54:41;;;;;;;7.13;4.15;;;;;;;;;;10165490;28;20039;-63
2021/01/25 16:59:39;;;;;;;5.23;3.33;;;;;;;;;;10156504;28;20038;-65
2021/01/25 17:04:36;;;;;;;2.50;1.93;;;;;;;;;;10176421;28;20034;-65
2021/01/25 17:09:38;;;;;;;6.23;3.40;;;;;;;;;;10153992;28;20113;-66
2021/01/25 17:14:36;;;;;;;3.60;2.63;;;;;;;;;;10169210;28;20035;-65
2021/01/25 17:19:33;;;;;;;3.77;2.70;;;;;;;;;;10169656;28;20035;-64
2021/01/25 17:24:31;;;;;;;3.35;2.22;;;;;;;;;;10170102;28;20439;-64
2021/01/25 17:29:29;;;;;;;6.07;3.87;;;;;;;;;;10172715;28;20088;-65
2021/01/25 17:34:27;;;;;;;8.93;3.57;;;;;;;;;;10163177;28;20039;-65
2021/01/25 17:39:24;;;;;;;7.53;4.03;;;;;;;;;;10170695;28;20122;-65
2021/01/25 17:44:21;;;;;;;9.97;5.20;;;;;;;;;;10186040;28;20523;-65
2021/01/25 17:49:19;;;;;;;14.80;4.37;;;;;;;;;;10172933;28;20112;-65
2021/01/25 17:54:17;;;;;;;9.03;3.80;;;;;;;;;;10176188;28;20035;-66
2021/01/25 17:59:15;;;;;;;4.00;3.38;;;;;;;;;;10159193;28;20037;-66
2021/01/25 18:04:14;;;;;;;17.80;6.20;;;;;;;;;;10141043;28;20117;-65
2021/01/25 18:09:15;;;;;;;8.55;5.45;;;;;;;;;;10166697;28;20453;-66
2021/01/25 18:14:14;;;;;;;10.50;6.25;;;;;;;;;;10168938;28;20057;-64
2021/01/25 18:19:12;;;;;;;12.60;5.28;;;;;;;;;;10155439;28;20427;-65
2021/01/25 18:24:09;;;;;;;12.40;6.37;;;;;;;;;;10187277;28;20061;-65
2021/01/25 18:29:07;;;;;;;16.77;8.27;;;;;;;;;;10164099;28;20089;-64
2021/01/25 18:34:05;;;;;;;8.80;4.30;;;;;;;;;;10174812;28;20513;-65
2021/01/25 18:39:03;;;;;;;7.15;4.30;;;;;;;;;;10132755;28;20031;-65
2021/01/25 18:44:00;;;;;;;11.70;5.75;;;;;;;;;;10169247;28;20043;-65
2021/01/25 18:48:58;;;;;;;10.77;6.27;;;;;;;;;;10175503;28;20046;-64
2021/01/25 18:53:55;;;;;;;12.20;6.30;;;;;;;;;;10175466;28;20072;-64
2021/01/25 18:58:53;;;;;;;17.10;8.33;;;;;;;;;;10156812;28;20039;-65
2021/01/25 19:03:50;;;;;;;16.33;7.13;;;;;;;;;;10172200;28;20046;-65
2021/01/25 19:08:47;;;;;;;12.27;5.53;;;;;;;;;;10176464;28;20062;-64
2021/01/25 19:13:45;;;;;;;12.47;7.20;;;;;;;;;;10175653;28;20476;-64
2021/01/25 19:18:42;;;;;;;14.23;7.60;;;;;;;;;;10175576;28;20133;-65
2021/01/25 19:23:40;;;;;;;13.07;6.37;;;;;;;;;;10148851;28;20034;-64
2021/01/25 19:28:38;;;;;;;15.43;6.57;;;;;;;;;;10151179;28;20723;-64
2021/01/25 19:33:35;;;;;;;12.02;5.32;;;;;;;;;;10163310;28;20465;-64
2021/01/25 19:38:32;;;;;;;16.03;8.00;;;;;;;;;;10172075;28;20646;-65
2021/01/25 19:43:30;;;;;;;18.63;8.20;;;;;;;;;;10131548;28;20035;-65
2021/01/25 19:48:27;;;;;;;20.93;10.77;;;;;;;;;;10159269;28;20122;-65
2021/01/25 19:53:25;;;;;;;24.00;10.52;;;;;;;;;;10149594;28;20045;-66
2021/01/25 19:58:23;;;;;;;18.10;10.57;;;;;;;;;;10161924;28;20042;-65
2021/01/25 20:03:21;;;;;;;17.67;9.40;;;;;;;;;;10144878;28;20070;-66
2021/01/25 20:08:18;;;;;;;21.67;9.75;;;;;;;;;;10154463;28;20035;-64
2021/01/25 20:13:16;;;;;;;20.50;10.67;;;;;;;;;;10154354;28;20135;-65
2021/01/25 20:18:15;;;;;;;8.00;4.07;;;;;;;;;;10170616;28;20043;-64
2021/01/25 20:23:15;;;;;;;19.98;9.52;;;;;;;;;;10156920;28;20034;-66
2021/01/25 20:28:19;;;;;;;25.63;10.75;;;;;;;;;;10165445;28;20046;-65
2021/01/25 20:33:24;;;;;;;18.80;10.02;;;;;;;;;;10124960;28;20125;-65
2021/01/25 20:38:24;;;;;;;23.00;12.55;;;;;;;;;;10170144;28;20060;-64
2021/01/25 20:43:22;;;;;;;23.23;13.20;;;;;;;;;;10163895;28;20525;-67
2021/01/25 20:48:21;;;;;;;24.88;13.85;;;;;;;;;;10148488;28;20046;-66
2021/01/25 20:53:23;;;;;;;25.02;12.15;;;;;;;;;;10178160;28;20529;-65
2021/01/25 20:58:21;;;;;;;25.30;12.32;;;;;;;;;;10165255;28;20117;-65
2021/01/25 21:03:19;;;;;;;24.83;12.97;;;;;;;;;;10162204;28;20556;-66
2021/01/25 21:08:17;;;;;;;26.55;12.57;;;;;;;;;;10160957;28;20712;-66
2021/01/25 21:13:14;;;;;;;24.63;11.57;;;;;;;;;;10151612;28;20209;-66
2021/01/25 21:18:12;;;;;;;23.30;11.83;;;;;;;;;;10143566;28;20660;-65
2021/01/25 21:23:12;;;;;;;22.88;10.43;;;;;;;;;;10155544;28;20045;-64
2021/01/25 21:28:09;;;;;;;18.23;9.60;;;;;;;;;;10172794;28;20073;-66
2021/01/25 21:33:08;;;;;;;17.93;9.67;;;;;;;;;;10151828;28;20584;-63
2021/01/25 21:38:05;;;;;;;18.73;9.52;;;;;;;;;;10160432;28;20054;-65
2021/01/25 21:43:03;;;;;;;25.35;11.93;;;;;;;;;;10162512;28;20041;-66
2021/01/25 21:48:01;;;;;;;22.30;10.70;;;;;;;;;;10158883;28;20063;-65
2021/01/25 21:52:58;;;;;;;18.55;8.18;;;;;;;;;;10153686;28;20055;-65
2021/01/25 21:57:56;;;;;;;20.40;9.10;;;;;;;;;;10162813;28;20046;-66
2021/01/25 22:02:54;;;;;;;19.80;9.60;;;;;;;;;;10174559;28;20496;-65
2021/01/25 22:07:52;;;;;;;18.38;9.13;;;;;;;;;;10159924;28;20145;-65
2021/01/25 22:12:50;;;;;;;26.17;11.25;;;;;;;;;;10165217;28;20574;-67
2021/01/25 22:17:47;;;;;;;;;;;;;;;;;;10148884;28;20046;-65
2021/01/25 22:22:45;;;;;;;27.43;11.17;;;;;;;;;;10156019;28;20419;-65
2021/01/25 22:27:43;;;;;;;27.65;12.52;;;;;;;;;;10153487;28;20287;-65
2021/01/25 22:32:40;;;;;;;22.47;11.00;;;;;;;;;;10154467;28;20122;-64
2021/01/25 22:37:38;;;;;;;25.63;11.43;;;;;;;;;;10155550;28;20468;-64
2021/01/25 22:42:36;;;;;;;18.13;8.73;;;;;;;;;;10170616;28;20126;-65
2021/01/25 22:47:33;;;;;;;16.97;8.13;;;;;;;;;;10140718;28;20038;-66
2021/01/25 22:52:31;;;;;;;9.47;5.53;;;;;;;;;;10153406;28;20061;-65
2021/01/25 22:57:28;;;;;;;14.03;6.90;;;;;;;;;;10150280;28;20517;-65
2021/01/25 23:02:25;;;;;;;13.80;7.37;;;;;;;;;;10159787;28;20039;-66
2021/01/25 23:07:23;;;;;;;9.70;5.93;;;;;;;;;;10168436;28;20069;-64
2021/01/25 23:12:20;;;;;;;9.17;5.83;;;;;;;;;;10129268;28;20048;-64
2021/01/25 23:17:17;;;;;;;15.50;6.83;;;;;;;;;;10158365;28;20046;-65
2021/01/25 23:22:15;;;;;;;14.77;6.50;;;;;;;;;;10165255;28;20049;-65
2021/01/25 23:27:12;;;;;;;14.73;7.40;;;;;;;;;;10148211;28;20509;-65
2021/01/25 23:32:09;;;;;;;9.03;5.10;;;;;;;;;;10170622;28;20031;-66
2021/01/25 23:37:07;;;;;;;12.77;5.03;;;;;;;;;;10158812;28;20031;-65
2021/01/25 23:42:04;;;;;;;16.93;7.80;;;;;;;;;;10137386;28;20041;-65
2021/01/25 23:47:02;;;;;;;13.40;6.40;;;;;;;;;;10169126;28;20433;-64
2021/01/25 23:51:59;;;;;;;15.03;6.77;;;;;;;;;;10167003;28;20038;-65
2021/01/25 23:56:56;;;;;;;14.63;6.60;;;;;;;;;;10163498;28;20027;-64
